sensor_id;sensor_type;location;lat;lon;timestamp;P1;durP1;ratioP1;P2;durP2;ratioP2
215;SDS011;70668;48.81286795;9.14184224;2024-02-28T00:02:19;34.67;;;18.87;;
215;SDS011;70668;48.81286795;9.14184224;2024-02-28T00:04:47;35.30;;;18.80;;
215;SDS011;70668;48.81286795;9.14184224;2024-02-28T00:07:16;34.93;;;18.63;;
215;SDS011;70668;48.81286795;9.14184224;2024-02-28T00:09:45;36.00;;;19.20;;
215;SDS011;70668;48.81286795;9.14184224;2024-02-28T00:12:13;32.80;;;18.70;;
215;SDS011;70668;48.81286795;9.14184224;2024-02-28T00:14:42;37.83;;;19.43;;
215;SDS011;70668;48.81286795;9.14184224;2024-02-28T00:17:11;34.17;;;19.10;;
215;SDS011;70668;48.81286795;9.14184224;2024-02-28T00:19:43;36.63;;;19.73;;
215;SDS011;70668;48.81286795;9.14184224;2024-02-28T00:22:12;35.10;;;18.77;;
215;SDS011;70668;48.81286795;9.14184224;2024-02-28T00:24:41;38.03;;;19.67;;
215;SDS011;70668;48.81286795;9.14184224;2024-02-28T00:27:09;38.53;;;19.63;;
215;SDS011;70668;48.81286795;9.14184224;2024-02-28T00:29:37;35.77;;;19.00;;
215;SDS011;70668;48.81286795;9.14184224;2024-02-28T00:32:06;38.47;;;19.47;;
215;SDS011;70668;48.81286795;9.14184224;2024-02-28T00:34:34;36.37;;;18.63;;
215;SDS011;70668;48.81286795;9.14184224;2024-02-28T00:37:05;36.57;;;18.93;;
215;SDS011;70668;48.81286795;9.14184224;2024-02-28T00:39:34;36.63;;;19.97;;
215;SDS011;70668;48.81286795;9.14184224;2024-02-28T00:42:02;37.23;;;19.60;;
215;SDS011;70668;48.81286795;9.14184224;2024-02-28T00:44:31;35.17;;;19.23;;
215;SDS011;70668;48.81286795;9.14184224;2024-02-28T00:46:59;37.93;;;20.30;;
215;SDS011;70668;48.81286795;9.14184224;2024-02-28T00:49:28;35.30;;;19.87;;
215;SDS011;70668;48.81286795;9.14184224;2024-02-28T00:51:56;40.67;;;20.73;;
215;SDS011;70668;48.81286795;9.14184224;2024-02-28T00:54:29;38.70;;;20.20;;
215;SDS011;70668;48.81286795;9.14184224;2024-02-28T00:56:57;37.33;;;19.20;;
215;SDS011;70668;48.81286795;9.14184224;2024-02-28T00:59:26;36.80;;;20.10;;
215;SDS011;70668;48.81286795;9.14184224;2024-02-28T01:01:54;41.40;;;19.70;;
215;SDS011;70668;48.81286795;9.14184224;2024-02-28T01:04:23;38.40;;;20.20;;
215;SDS011;70668;48.81286795;9.14184224;2024-02-28T01:06:51;39.93;;;20.37;;
215;SDS011;70668;48.81286795;9.14184224;2024-02-28T01:09:21;40.30;;;20.33;;
215;SDS011;70668;48.81286795;9.14184224;2024-02-28T01:11:52;38.63;;;20.53;;
215;SDS011;70668;48.81286795;9.14184224;2024-02-28T01:14:21;39.03;;;19.80;;
215;SDS011;70668;48.81286795;9.14184224;2024-02-28T01:16:49;39.87;;;19.37;;
215;SDS011;70668;48.81286795;9.14184224;2024-02-28T01:19:18;38.70;;;20.50;;
215;SDS011;70668;48.81286795;9.14184224;2024-02-28T01:21:46;38.23;;;19.90;;
215;SDS011;70668;48.81286795;9.14184224;2024-02-28T01:24:15;37.03;;;19.93;;
215;SDS011;70668;48.81286795;9.14184224;2024-02-28T01:26:43;37.00;;;19.77;;
215;SDS011;70668;48.81286795;9.14184224;2024-02-28T01:29:14;38.67;;;20.37;;
215;SDS011;70668;48.81286795;9.14184224;2024-02-28T01:31:43;37.47;;;19.03;;
215;SDS011;70668;48.81286795;9.14184224;2024-02-28T01:34:11;38.93;;;20.30;;
215;SDS011;70668;48.81286795;9.14184224;2024-02-28T01:36:40;39.70;;;20.50;;
215;SDS011;70668;48.81286795;9.14184224;2024-02-28T01:39:08;41.83;;;21.37;;
215;SDS011;70668;48.81286795;9.14184224;2024-02-28T01:41:37;40.10;;;21.10;;
215;SDS011;70668;48.81286795;9.14184224;2024-02-28T01:44:05;42.70;;;22.00;;
215;SDS011;70668;48.81286795;9.14184224;2024-02-28T01:46:36;44.20;;;21.90;;
215;SDS011;70668;48.81286795;9.14184224;2024-02-28T01:49:05;39.73;;;20.97;;
215;SDS011;70668;48.81286795;9.14184224;2024-02-28T01:51:34;41.03;;;20.53;;
215;SDS011;70668;48.81286795;9.14184224;2024-02-28T01:54:02;36.60;;;20.50;;
215;SDS011;70668;48.81286795;9.14184224;2024-02-28T01:56:31;39.97;;;19.50;;
215;SDS011;70668;48.81286795;9.14184224;2024-02-28T01:59:00;38.73;;;19.67;;
215;SDS011;70668;48.81286795;9.14184224;2024-02-28T02:01:30;42.40;;;20.93;;
215;SDS011;70668;48.81286795;9.14184224;2024-02-28T02:04:01;39.67;;;20.07;;
215;SDS011;70668;48.81286795;9.14184224;2024-02-28T02:06:30;39.90;;;20.00;;
215;SDS011;70668;48.81286795;9.14184224;2024-02-28T02:09:01;41.33;;;20.47;;
215;SDS011;70668;48.81286795;9.14184224;2024-02-28T02:11:29;38.20;;;19.40;;
215;SDS011;70668;48.81286795;9.14184224;2024-02-28T02:13:58;35.63;;;19.43;;
215;SDS011;70668;48.81286795;9.14184224;2024-02-28T02:16:26;34.53;;;18.70;;
215;SDS011;70668;48.81286795;9.14184224;2024-02-28T02:18:55;38.80;;;20.70;;
215;SDS011;70668;48.81286795;9.14184224;2024-02-28T02:21:28;34.80;;;19.73;;
215;SDS011;70668;48.81286795;9.14184224;2024-02-28T02:24:01;40.87;;;21.30;;
215;SDS011;70668;48.81286795;9.14184224;2024-02-28T02:26:29;37.77;;;19.73;;
215;SDS011;70668;48.81286795;9.14184224;2024-02-28T02:28:58;37.23;;;19.83;;
215;SDS011;70668;48.81286795;9.14184224;2024-02-28T02:31:26;38.00;;;20.13;;
215;SDS011;70668;48.81286795;9.14184224;2024-02-28T02:33:55;37.60;;;20.33;;
215;SDS011;70668;48.81286795;9.14184224;2024-02-28T02:36:24;36.90;;;19.80;;
215;SDS011;70668;48.81286795;9.14184224;2024-02-28T02:38:52;38.13;;;20.23;;
215;SDS011;70668;48.81286795;9.14184224;2024-02-28T02:41:23;39.83;;;20.50;;
215;SDS011;70668;48.81286795;9.14184224;2024-02-28T02:43:52;37.90;;;20.00;;
215;SDS011;70668;48.81286795;9.14184224;2024-02-28T02:46:20;38.03;;;19.80;;
215;SDS011;70668;48.81286795;9.14184224;2024-02-28T02:48:49;41.73;;;20.10;;
215;SDS011;70668;48.81286795;9.14184224;2024-02-28T02:51:18;44.27;;;22.20;;
215;SDS011;70668;48.81286795;9.14184224;2024-02-28T02:53:46;39.70;;;21.00;;
215;SDS011;70668;48.81286795;9.14184224;2024-02-28T02:56:15;36.90;;;20.00;;
215;SDS011;70668;48.81286795;9.14184224;2024-02-28T02:58:46;39.17;;;20.57;;
215;SDS011;70668;48.81286795;9.14184224;2024-02-28T03:01:14;42.63;;;19.37;;
215;SDS011;70668;48.81286795;9.14184224;2024-02-28T03:03:45;38.93;;;20.23;;
215;SDS011;70668;48.81286795;9.14184224;2024-02-28T03:06:13;38.83;;;20.30;;
215;SDS011;70668;48.81286795;9.14184224;2024-02-28T03:08:42;40.87;;;20.53;;
215;SDS011;70668;48.81286795;9.14184224;2024-02-28T03:11:10;39.97;;;20.53;;
215;SDS011;70668;48.81286795;9.14184224;2024-02-28T03:13:39;41.30;;;21.70;;
215;SDS011;70668;48.81286795;9.14184224;2024-02-28T03:16:10;43.57;;;21.20;;
215;SDS011;70668;48.81286795;9.14184224;2024-02-28T03:18:39;42.00;;;21.13;;
215;SDS011;70668;48.81286795;9.14184224;2024-02-28T03:21:07;42.80;;;20.97;;
215;SDS011;70668;48.81286795;9.14184224;2024-02-28T03:23:36;39.37;;;20.57;;
215;SDS011;70668;48.81286795;9.14184224;2024-02-28T03:26:04;37.90;;;19.70;;
215;SDS011;70668;48.81286795;9.14184224;2024-02-28T03:28:33;38.70;;;20.20;;
215;SDS011;70668;48.81286795;9.14184224;2024-02-28T03:31:01;38.27;;;21.10;;
215;SDS011;70668;48.81286795;9.14184224;2024-02-28T03:33:33;42.53;;;21.13;;
215;SDS011;70668;48.81286795;9.14184224;2024-02-28T03:36:01;41.43;;;20.10;;
215;SDS011;70668;48.81286795;9.14184224;2024-02-28T03:38:30;40.50;;;21.00;;
215;SDS011;70668;48.81286795;9.14184224;2024-02-28T03:40:59;40.47;;;20.93;;
215;SDS011;70668;48.81286795;9.14184224;2024-02-28T03:43:27;40.23;;;19.97;;
215;SDS011;70668;48.81286795;9.14184224;2024-02-28T03:45:56;40.57;;;20.60;;
215;SDS011;70668;48.81286795;9.14184224;2024-02-28T03:48:24;37.20;;;20.20;;
215;SDS011;70668;48.81286795;9.14184224;2024-02-28T03:50:55;40.80;;;21.00;;
215;SDS011;70668;48.81286795;9.14184224;2024-02-28T03:53:24;38.80;;;20.53;;
215;SDS011;70668;48.81286795;9.14184224;2024-02-28T03:55:52;44.47;;;21.47;;
215;SDS011;70668;48.81286795;9.14184224;2024-02-28T03:58:21;41.90;;;20.70;;
215;SDS011;70668;48.81286795;9.14184224;2024-02-28T04:00:49;43.77;;;20.73;;
215;SDS011;70668;48.81286795;9.14184224;2024-02-28T04:03:18;38.60;;;20.33;;
215;SDS011;70668;48.81286795;9.14184224;2024-02-28T04:05:46;42.40;;;20.87;;
215;SDS011;70668;48.81286795;9.14184224;2024-02-28T04:08:17;42.60;;;20.73;;
215;SDS011;70668;48.81286795;9.14184224;2024-02-28T04:10:46;42.00;;;20.57;;
215;SDS011;70668;48.81286795;9.14184224;2024-02-28T04:13:15;43.93;;;21.67;;
215;SDS011;70668;48.81286795;9.14184224;2024-02-28T04:15:44;42.13;;;20.77;;
215;SDS011;70668;48.81286795;9.14184224;2024-02-28T04:18:13;39.80;;;20.20;;
215;SDS011;70668;48.81286795;9.14184224;2024-02-28T04:20:42;39.03;;;20.90;;
215;SDS011;70668;48.81286795;9.14184224;2024-02-28T04:23:10;39.53;;;21.50;;
215;SDS011;70668;48.81286795;9.14184224;2024-02-28T04:25:41;39.67;;;21.60;;
215;SDS011;70668;48.81286795;9.14184224;2024-02-28T04:28:10;40.37;;;21.20;;
215;SDS011;70668;48.81286795;9.14184224;2024-02-28T04:30:39;41.90;;;21.83;;
215;SDS011;70668;48.81286795;9.14184224;2024-02-28T04:33:07;40.70;;;21.80;;
215;SDS011;70668;48.81286795;9.14184224;2024-02-28T04:35:36;47.27;;;22.43;;
215;SDS011;70668;48.81286795;9.14184224;2024-02-28T04:38:04;41.40;;;20.80;;
215;SDS011;70668;48.81286795;9.14184224;2024-02-28T04:40:33;41.23;;;21.23;;
215;SDS011;70668;48.81286795;9.14184224;2024-02-28T04:43:05;41.67;;;21.50;;
215;SDS011;70668;48.81286795;9.14184224;2024-02-28T04:45:33;44.93;;;22.00;;
215;SDS011;70668;48.81286795;9.14184224;2024-02-28T04:48:02;45.40;;;22.40;;
215;SDS011;70668;48.81286795;9.14184224;2024-02-28T04:50:31;38.23;;;21.10;;
215;SDS011;70668;48.81286795;9.14184224;2024-02-28T04:52:59;44.00;;;22.50;;
215;SDS011;70668;48.81286795;9.14184224;2024-02-28T04:55:28;41.97;;;22.40;;
215;SDS011;70668;48.81286795;9.14184224;2024-02-28T04:57:56;42.10;;;21.93;;
215;SDS011;70668;48.81286795;9.14184224;2024-02-28T05:00:28;41.53;;;21.90;;
215;SDS011;70668;48.81286795;9.14184224;2024-02-28T05:02:57;44.30;;;22.43;;
215;SDS011;70668;48.81286795;9.14184224;2024-02-28T05:05:26;42.17;;;22.60;;
215;SDS011;70668;48.81286795;9.14184224;2024-02-28T05:07:54;55.53;;;24.10;;
215;SDS011;70668;48.81286795;9.14184224;2024-02-28T05:10:23;43.97;;;22.00;;
215;SDS011;70668;48.81286795;9.14184224;2024-02-28T05:12:51;43.00;;;22.40;;
215;SDS011;70668;48.81286795;9.14184224;2024-02-28T05:15:20;41.67;;;21.60;;
215;SDS011;70668;48.81286795;9.14184224;2024-02-28T05:17:52;41.13;;;22.40;;
215;SDS011;70668;48.81286795;9.14184224;2024-02-28T05:20:20;40.70;;;21.70;;
215;SDS011;70668;48.81286795;9.14184224;2024-02-28T05:22:49;44.77;;;21.80;;
215;SDS011;70668;48.81286795;9.14184224;2024-02-28T05:25:18;44.77;;;21.83;;
215;SDS011;70668;48.81286795;9.14184224;2024-02-28T05:27:46;43.17;;;22.77;;
215;SDS011;70668;48.81286795;9.14184224;2024-02-28T05:30:15;40.37;;;21.50;;
215;SDS011;70668;48.81286795;9.14184224;2024-02-28T05:32:44;46.03;;;23.17;;
215;SDS011;70668;48.81286795;9.14184224;2024-02-28T05:35:16;42.87;;;22.40;;
215;SDS011;70668;48.81286795;9.14184224;2024-02-28T05:37:44;44.50;;;22.83;;
215;SDS011;70668;48.81286795;9.14184224;2024-02-28T05:40:14;39.50;;;20.70;;
215;SDS011;70668;48.81286795;9.14184224;2024-02-28T05:42:43;44.27;;;23.20;;
215;SDS011;70668;48.81286795;9.14184224;2024-02-28T05:45:12;44.27;;;23.17;;
215;SDS011;70668;48.81286795;9.14184224;2024-02-28T05:47:40;45.40;;;22.50;;
215;SDS011;70668;48.81286795;9.14184224;2024-02-28T05:50:09;44.00;;;22.70;;
215;SDS011;70668;48.81286795;9.14184224;2024-02-28T05:52:40;44.33;;;22.47;;
215;SDS011;70668;48.81286795;9.14184224;2024-02-28T05:55:09;47.93;;;23.37;;
215;SDS011;70668;48.81286795;9.14184224;2024-02-28T05:57:38;40.20;;;22.13;;
215;SDS011;70668;48.81286795;9.14184224;2024-02-28T06:00:07;44.40;;;22.67;;
215;SDS011;70668;48.81286795;9.14184224;2024-02-28T06:02:39;47.90;;;23.20;;
215;SDS011;70668;48.81286795;9.14184224;2024-02-28T06:05:08;45.50;;;22.90;;
215;SDS011;70668;48.81286795;9.14184224;2024-02-28T06:07:36;38.47;;;21.13;;
215;SDS011;70668;48.81286795;9.14184224;2024-02-28T06:10:08;45.53;;;22.20;;
215;SDS011;70668;48.81286795;9.14184224;2024-02-28T06:12:37;44.10;;;23.03;;
215;SDS011;70668;48.81286795;9.14184224;2024-02-28T06:15:05;47.17;;;24.10;;
215;SDS011;70668;48.81286795;9.14184224;2024-02-28T06:17:34;44.87;;;23.33;;
215;SDS011;70668;48.81286795;9.14184224;2024-02-28T06:20:03;44.50;;;23.17;;
215;SDS011;70668;48.81286795;9.14184224;2024-02-28T06:22:32;43.53;;;22.60;;
215;SDS011;70668;48.81286795;9.14184224;2024-02-28T06:25:01;45.70;;;22.67;;
215;SDS011;70668;48.81286795;9.14184224;2024-02-28T06:27:35;41.53;;;22.30;;
215;SDS011;70668;48.81286795;9.14184224;2024-02-28T06:30:04;44.93;;;24.10;;
215;SDS011;70668;48.81286795;9.14184224;2024-02-28T06:32:34;46.53;;;22.83;;
215;SDS011;70668;48.81286795;9.14184224;2024-02-28T06:35:03;44.37;;;23.03;;
215;SDS011;70668;48.81286795;9.14184224;2024-02-28T06:37:32;46.23;;;23.67;;
215;SDS011;70668;48.81286795;9.14184224;2024-02-28T06:40:02;49.13;;;24.20;;
215;SDS011;70668;48.81286795;9.14184224;2024-02-28T06:42:36;44.80;;;22.70;;
215;SDS011;70668;48.81286795;9.14184224;2024-02-28T06:45:05;47.80;;;24.17;;
215;SDS011;70668;48.81286795;9.14184224;2024-02-28T06:47:34;46.37;;;24.00;;
215;SDS011;70668;48.81286795;9.14184224;2024-02-28T06:50:04;44.83;;;23.20;;
215;SDS011;70668;48.81286795;9.14184224;2024-02-28T06:52:34;45.80;;;25.00;;
215;SDS011;70668;48.81286795;9.14184224;2024-02-28T06:55:03;52.70;;;26.43;;
215;SDS011;70668;48.81286795;9.14184224;2024-02-28T06:57:39;47.77;;;25.10;;
215;SDS011;70668;48.81286795;9.14184224;2024-02-28T07:00:09;49.30;;;24.80;;
215;SDS011;70668;48.81286795;9.14184224;2024-02-28T07:02:40;52.47;;;25.03;;
215;SDS011;70668;48.81286795;9.14184224;2024-02-28T07:05:08;48.00;;;24.00;;
215;SDS011;70668;48.81286795;9.14184224;2024-02-28T07:07:37;45.23;;;24.80;;
215;SDS011;70668;48.81286795;9.14184224;2024-02-28T07:10:06;46.90;;;24.53;;
215;SDS011;70668;48.81286795;9.14184224;2024-02-28T07:12:35;51.27;;;24.50;;
215;SDS011;70668;48.81286795;9.14184224;2024-02-28T07:15:06;52.80;;;25.90;;
215;SDS011;70668;48.81286795;9.14184224;2024-02-28T07:17:35;55.50;;;26.53;;
215;SDS011;70668;48.81286795;9.14184224;2024-02-28T07:20:04;52.97;;;24.80;;
215;SDS011;70668;48.81286795;9.14184224;2024-02-28T07:22:33;47.40;;;25.03;;
215;SDS011;70668;48.81286795;9.14184224;2024-02-28T07:25:02;49.60;;;24.37;;
215;SDS011;70668;48.81286795;9.14184224;2024-02-28T07:27:33;49.27;;;25.20;;
215;SDS011;70668;48.81286795;9.14184224;2024-02-28T07:30:04;49.20;;;24.47;;
215;SDS011;70668;48.81286795;9.14184224;2024-02-28T07:32:34;51.57;;;26.30;;
215;SDS011;70668;48.81286795;9.14184224;2024-02-28T07:35:02;52.10;;;26.00;;
215;SDS011;70668;48.81286795;9.14184224;2024-02-28T07:37:31;54.00;;;27.53;;
215;SDS011;70668;48.81286795;9.14184224;2024-02-28T07:40:00;47.80;;;24.83;;
215;SDS011;70668;48.81286795;9.14184224;2024-02-28T07:42:28;52.53;;;26.87;;
215;SDS011;70668;48.81286795;9.14184224;2024-02-28T07:44:57;49.50;;;25.53;;
215;SDS011;70668;48.81286795;9.14184224;2024-02-28T07:47:28;51.30;;;25.07;;
215;SDS011;70668;48.81286795;9.14184224;2024-02-28T07:49:56;47.90;;;24.57;;
215;SDS011;70668;48.81286795;9.14184224;2024-02-28T07:52:25;47.63;;;24.87;;
215;SDS011;70668;48.81286795;9.14184224;2024-02-28T07:54:53;51.03;;;25.47;;
215;SDS011;70668;48.81286795;9.14184224;2024-02-28T07:57:22;49.40;;;25.50;;
215;SDS011;70668;48.81286795;9.14184224;2024-02-28T07:59:50;50.47;;;25.50;;
215;SDS011;70668;48.81286795;9.14184224;2024-02-28T08:02:19;49.23;;;25.10;;
215;SDS011;70668;48.81286795;9.14184224;2024-02-28T08:04:50;50.33;;;25.57;;
215;SDS011;70668;48.81286795;9.14184224;2024-02-28T08:07:19;48.43;;;24.90;;
215;SDS011;70668;48.81286795;9.14184224;2024-02-28T08:09:47;51.63;;;25.20;;
215;SDS011;70668;48.81286795;9.14184224;2024-02-28T08:12:16;51.07;;;25.20;;
215;SDS011;70668;48.81286795;9.14184224;2024-02-28T08:14:44;51.03;;;26.10;;
215;SDS011;70668;48.81286795;9.14184224;2024-02-28T08:17:13;48.67;;;25.00;;
215;SDS011;70668;48.81286795;9.14184224;2024-02-28T08:19:41;51.27;;;26.33;;
215;SDS011;70668;48.81286795;9.14184224;2024-02-28T08:22:12;52.50;;;25.20;;
215;SDS011;70668;48.81286795;9.14184224;2024-02-28T08:24:41;50.97;;;26.20;;
215;SDS011;70668;48.81286795;9.14184224;2024-02-28T08:27:09;51.73;;;26.40;;
215;SDS011;70668;48.81286795;9.14184224;2024-02-28T08:29:39;56.50;;;25.80;;
215;SDS011;70668;48.81286795;9.14184224;2024-02-28T08:32:09;47.27;;;25.17;;
215;SDS011;70668;48.81286795;9.14184224;2024-02-28T08:34:38;51.63;;;25.90;;
215;SDS011;70668;48.81286795;9.14184224;2024-02-28T08:37:06;54.10;;;25.13;;
215;SDS011;70668;48.81286795;9.14184224;2024-02-28T08:39:37;47.10;;;25.07;;
215;SDS011;70668;48.81286795;9.14184224;2024-02-28T08:42:06;48.77;;;23.30;;
215;SDS011;70668;48.81286795;9.14184224;2024-02-28T08:44:34;47.23;;;23.97;;
215;SDS011;70668;48.81286795;9.14184224;2024-02-28T08:47:03;50.30;;;25.60;;
215;SDS011;70668;48.81286795;9.14184224;2024-02-28T08:49:34;51.77;;;26.10;;
215;SDS011;70668;48.81286795;9.14184224;2024-02-28T08:52:03;51.47;;;24.90;;
215;SDS011;70668;48.81286795;9.14184224;2024-02-28T08:54:32;52.97;;;24.50;;
215;SDS011;70668;48.81286795;9.14184224;2024-02-28T08:57:03;52.13;;;26.50;;
215;SDS011;70668;48.81286795;9.14184224;2024-02-28T08:59:31;55.13;;;26.43;;
215;SDS011;70668;48.81286795;9.14184224;2024-02-28T09:02:00;50.83;;;24.70;;
215;SDS011;70668;48.81286795;9.14184224;2024-02-28T09:04:28;49.23;;;24.90;;
215;SDS011;70668;48.81286795;9.14184224;2024-02-28T09:06:57;50.77;;;25.03;;
215;SDS011;70668;48.81286795;9.14184224;2024-02-28T09:09:26;50.10;;;24.13;;
215;SDS011;70668;48.81286795;9.14184224;2024-02-28T09:11:57;53.27;;;25.00;;
215;SDS011;70668;48.81286795;9.14184224;2024-02-28T09:14:30;48.23;;;24.00;;
215;SDS011;70668;48.81286795;9.14184224;2024-02-28T09:16:59;47.17;;;24.40;;
215;SDS011;70668;48.81286795;9.14184224;2024-02-28T09:19:28;47.07;;;23.50;;
215;SDS011;70668;48.81286795;9.14184224;2024-02-28T09:21:57;54.40;;;25.60;;
215;SDS011;70668;48.81286795;9.14184224;2024-02-28T09:24:26;46.40;;;23.83;;
215;SDS011;70668;48.81286795;9.14184224;2024-02-28T09:26:54;49.47;;;24.47;;
215;SDS011;70668;48.81286795;9.14184224;2024-02-28T09:29:23;47.30;;;24.33;;
215;SDS011;70668;48.81286795;9.14184224;2024-02-28T09:31:54;49.07;;;24.50;;
215;SDS011;70668;48.81286795;9.14184224;2024-02-28T09:34:22;48.37;;;24.37;;
215;SDS011;70668;48.81286795;9.14184224;2024-02-28T09:36:51;46.67;;;24.43;;
215;SDS011;70668;48.81286795;9.14184224;2024-02-28T09:39:20;46.83;;;24.37;;
215;SDS011;70668;48.81286795;9.14184224;2024-02-28T09:41:47;48.57;;;24.73;;
215;SDS011;70668;48.81286795;9.14184224;2024-02-28T09:44:17;47.00;;;24.17;;
215;SDS011;70668;48.81286795;9.14184224;2024-02-28T09:46:46;45.93;;;23.30;;
215;SDS011;70668;48.81286795;9.14184224;2024-02-28T09:49:20;45.50;;;23.10;;
215;SDS011;70668;48.81286795;9.14184224;2024-02-28T09:51:49;45.73;;;22.87;;
215;SDS011;70668;48.81286795;9.14184224;2024-02-28T09:54:18;45.10;;;22.67;;
215;SDS011;70668;48.81286795;9.14184224;2024-02-28T09:56:47;44.47;;;23.40;;
215;SDS011;70668;48.81286795;9.14184224;2024-02-28T09:59:17;46.87;;;22.57;;
215;SDS011;70668;48.81286795;9.14184224;2024-02-28T10:01:47;45.67;;;21.80;;
215;SDS011;70668;48.81286795;9.14184224;2024-02-28T10:04:24;45.67;;;22.67;;
215;SDS011;70668;48.81286795;9.14184224;2024-02-28T10:06:54;51.23;;;22.97;;
215;SDS011;70668;48.81286795;9.14184224;2024-02-28T10:09:23;44.33;;;22.50;;
215;SDS011;70668;48.81286795;9.14184224;2024-02-28T10:11:52;44.40;;;23.17;;
215;SDS011;70668;48.81286795;9.14184224;2024-02-28T10:14:20;46.07;;;23.63;;
215;SDS011;70668;48.81286795;9.14184224;2024-02-28T10:16:49;47.67;;;23.33;;
215;SDS011;70668;48.81286795;9.14184224;2024-02-28T10:19:17;46.97;;;23.07;;
215;SDS011;70668;48.81286795;9.14184224;2024-02-28T10:21:49;39.50;;;21.13;;
215;SDS011;70668;48.81286795;9.14184224;2024-02-28T10:24:18;44.97;;;21.77;;
215;SDS011;70668;48.81286795;9.14184224;2024-02-28T10:26:47;43.90;;;21.60;;
215;SDS011;70668;48.81286795;9.14184224;2024-02-28T10:29:20;42.70;;;22.07;;
215;SDS011;70668;48.81286795;9.14184224;2024-02-28T10:31:49;39.50;;;20.63;;
215;SDS011;70668;48.81286795;9.14184224;2024-02-28T10:34:17;40.90;;;20.43;;
215;SDS011;70668;48.81286795;9.14184224;2024-02-28T10:36:49;38.10;;;19.90;;
215;SDS011;70668;48.81286795;9.14184224;2024-02-28T10:39:17;37.53;;;19.10;;
215;SDS011;70668;48.81286795;9.14184224;2024-02-28T10:41:46;40.77;;;20.30;;
215;SDS011;70668;48.81286795;9.14184224;2024-02-28T10:44:15;38.03;;;20.47;;
215;SDS011;70668;48.81286795;9.14184224;2024-02-28T10:46:45;38.70;;;20.53;;
215;SDS011;70668;48.81286795;9.14184224;2024-02-28T10:49:17;37.50;;;20.43;;
215;SDS011;70668;48.81286795;9.14184224;2024-02-28T10:51:47;37.93;;;19.83;;
215;SDS011;70668;48.81286795;9.14184224;2024-02-28T10:54:24;38.90;;;20.43;;
215;SDS011;70668;48.81286795;9.14184224;2024-02-28T10:56:56;38.27;;;19.50;;
215;SDS011;70668;48.81286795;9.14184224;2024-02-28T10:59:25;35.30;;;19.43;;
215;SDS011;70668;48.81286795;9.14184224;2024-02-28T11:01:58;38.03;;;18.60;;
215;SDS011;70668;48.81286795;9.14184224;2024-02-28T11:04:27;36.67;;;18.67;;
215;SDS011;70668;48.81286795;9.14184224;2024-02-28T11:06:58;35.83;;;19.60;;
215;SDS011;70668;48.81286795;9.14184224;2024-02-28T11:09:28;38.67;;;19.97;;
215;SDS011;70668;48.81286795;9.14184224;2024-02-28T11:11:58;39.43;;;20.20;;
215;SDS011;70668;48.81286795;9.14184224;2024-02-28T11:14:27;37.50;;;18.97;;
215;SDS011;70668;48.81286795;9.14184224;2024-02-28T11:16:59;36.73;;;18.53;;
215;SDS011;70668;48.81286795;9.14184224;2024-02-28T11:19:29;39.40;;;20.20;;
215;SDS011;70668;48.81286795;9.14184224;2024-02-28T11:22:01;36.97;;;19.90;;
215;SDS011;70668;48.81286795;9.14184224;2024-02-28T11:24:31;38.63;;;18.80;;
215;SDS011;70668;48.81286795;9.14184224;2024-02-28T11:27:01;41.27;;;19.50;;
215;SDS011;70668;48.81286795;9.14184224;2024-02-28T11:29:31;37.13;;;18.97;;
215;SDS011;70668;48.81286795;9.14184224;2024-02-28T11:31:59;38.97;;;18.80;;
215;SDS011;70668;48.81286795;9.14184224;2024-02-28T11:34:28;35.80;;;18.70;;
215;SDS011;70668;48.81286795;9.14184224;2024-02-28T11:36:56;34.73;;;18.80;;
215;SDS011;70668;48.81286795;9.14184224;2024-02-28T11:39:27;32.83;;;17.40;;
215;SDS011;70668;48.81286795;9.14184224;2024-02-28T11:42:07;35.80;;;19.47;;
215;SDS011;70668;48.81286795;9.14184224;2024-02-28T11:44:38;38.10;;;19.70;;
215;SDS011;70668;48.81286795;9.14184224;2024-02-28T11:47:08;41.10;;;19.57;;
215;SDS011;70668;48.81286795;9.14184224;2024-02-28T11:49:37;36.07;;;18.37;;
215;SDS011;70668;48.81286795;9.14184224;2024-02-28T11:52:07;34.20;;;18.43;;
215;SDS011;70668;48.81286795;9.14184224;2024-02-28T11:54:39;37.87;;;19.37;;
215;SDS011;70668;48.81286795;9.14184224;2024-02-28T11:57:08;38.60;;;19.60;;
215;SDS011;70668;48.81286795;9.14184224;2024-02-28T11:59:43;36.17;;;18.67;;
215;SDS011;70668;48.81286795;9.14184224;2024-02-28T12:02:13;37.27;;;19.00;;
215;SDS011;70668;48.81286795;9.14184224;2024-02-28T12:04:42;37.23;;;19.53;;
215;SDS011;70668;48.81286795;9.14184224;2024-02-28T12:07:15;38.57;;;19.13;;
215;SDS011;70668;48.81286795;9.14184224;2024-02-28T12:09:46;37.10;;;18.77;;
215;SDS011;70668;48.81286795;9.14184224;2024-02-28T12:12:15;39.30;;;20.00;;
215;SDS011;70668;48.81286795;9.14184224;2024-02-28T12:14:45;39.00;;;19.63;;
215;SDS011;70668;48.81286795;9.14184224;2024-02-28T12:17:14;38.50;;;19.70;;
215;SDS011;70668;48.81286795;9.14184224;2024-02-28T12:19:43;40.77;;;19.33;;
215;SDS011;70668;48.81286795;9.14184224;2024-02-28T12:22:12;39.63;;;19.40;;
215;SDS011;70668;48.81286795;9.14184224;2024-02-28T12:24:40;39.60;;;19.13;;
215;SDS011;70668;48.81286795;9.14184224;2024-02-28T12:27:11;39.20;;;19.57;;
215;SDS011;70668;48.81286795;9.14184224;2024-02-28T12:29:40;38.17;;;20.17;;
215;SDS011;70668;48.81286795;9.14184224;2024-02-28T12:32:09;37.53;;;20.23;;
215;SDS011;70668;48.81286795;9.14184224;2024-02-28T12:34:37;39.80;;;19.20;;
215;SDS011;70668;48.81286795;9.14184224;2024-02-28T12:37:06;39.00;;;19.20;;
215;SDS011;70668;48.81286795;9.14184224;2024-02-28T12:39:34;35.80;;;18.80;;
215;SDS011;70668;48.81286795;9.14184224;2024-02-28T12:42:03;36.30;;;18.70;;
215;SDS011;70668;48.81286795;9.14184224;2024-02-28T12:44:35;34.83;;;18.90;;
215;SDS011;70668;48.81286795;9.14184224;2024-02-28T12:47:05;38.27;;;17.80;;
215;SDS011;70668;48.81286795;9.14184224;2024-02-28T12:49:34;42.10;;;19.30;;
215;SDS011;70668;48.81286795;9.14184224;2024-02-28T12:52:03;39.40;;;19.70;;
215;SDS011;70668;48.81286795;9.14184224;2024-02-28T12:54:32;38.60;;;19.83;;
215;SDS011;70668;48.81286795;9.14184224;2024-02-28T12:57:01;38.57;;;19.77;;
215;SDS011;70668;48.81286795;9.14184224;2024-02-28T12:59:31;39.20;;;19.00;;
215;SDS011;70668;48.81286795;9.14184224;2024-02-28T13:02:02;37.63;;;19.07;;